Terminal Aerodrome Forecast
Issued by NWS Portland, OR

Home | Current Version | Previous Version | Text Only | Print | Product List | Glossary On
Versions: 1 2 3 4 5 6 7 8 9 10 11 12 13 14 15 16 17 18 19 20 21 22 23 24 25 26 27 28 29 30 31 32 33 34 35 36 37 38 39 40
000
FTUS46 KPQR 250302 AAA
TAFHIO
TAF AMD
KHIO 250302Z 2503/2524 00000KT 4SM BR SCT001 BKN250
     FM250600 00000KT 1SM BR BKN001
     FM250800 00000KT 1/4SM FG VV001
     FM251900 VRB03KT 1 1/2SM BR BKN002
     FM252100 VRB03KT P6SM FEW005 BKN250=

USA.gov is the U.S. government's official web portal to all federal, state and local government web resources and services.